Huvudsida
METAR-TAF:

METAR-TAF

Flygplatser :

Staunings flygplats

Ringkøbing-Skjern, Danmark

latitud: 56-00N, longitud: 008-21E, höjd: 5 m

Aktuellt väderrapport

Denna rapport gjordes för 50 minuter sedan, klockan 08:50 UTC
Vind 12 kt från ost, varierande mellan ost/nordost och ost/sydost
Temperatur 20°C
Fuktighet 64%
Tryck 1018 hPa
Sikt 10 km eller mer
Inga moln under 1 500 m eller inga cumulonimbus

METAR: EKVJ 220850Z 09012KT 060V120 CAVOK 20/13 Q1018

Tid: 11:40 (09:40 UTC)

Väderprognos

Denna rapport gjordes för 45 minuter sedan, klockan 08:55 UTC
Prognos gäller från 22 kl. 09 UTC till 22 kl. 15 UTC
Vind 10 kt från ost
Sikt 10 km eller mer
Inga moln under 1 500 m eller inga cumulonimbus

TAF: EKVJ 220855Z 2209/2215 10010KT CAVOK

Aktuella väderrapporter och prognoser från 4000 flygplatser (METAR- och TAF-rapporter).

De tillgängliga stationerna syns som gula och röda prickar på kartan.

För musen över prickarna för att se namnen på stationerna.

Klicka sedan för att få väderrapporter och prognoser.

För att ändra kartan: Klicka på de gröna knapparna med ett svart kors på för att zooma in; den gröna knappen med ett streck på för att zooma ut; eller på de gröna pilarna för angränsande kartor.


METAR-TAF: